createdAt,value
2023-01-11T00:01:04.700Z,2.63
2023-01-11T00:03:31.702Z,3.32
2023-01-11T00:05:59.316Z,3.34
2023-01-11T00:08:27.268Z,3.42
2023-01-11T00:10:54.531Z,3.01
2023-01-11T00:13:21.233Z,3.30
2023-01-11T00:15:49.143Z,3.41
2023-01-11T00:18:15.781Z,3.44
2023-01-11T00:20:42.398Z,3.45
2023-01-11T00:23:09.183Z,3.20
2023-01-11T00:25:36.239Z,2.65
2023-01-11T00:28:02.831Z,3.32
2023-01-11T00:30:29.445Z,3.39
2023-01-11T00:32:58.530Z,3.44
2023-01-11T00:35:25.946Z,3.44
2023-01-11T00:37:53.832Z,3.44
2023-01-11T00:40:20.428Z,3.46
2023-01-11T00:43:05.669Z,3.06
2023-01-11T00:45:51.008Z,3.38
2023-01-11T00:48:18.894Z,3.06
2023-01-11T00:50:45.387Z,2.38
2023-01-11T00:53:11.900Z,3.27
2023-01-11T00:55:38.523Z,3.39
2023-01-11T00:58:05.186Z,3.43
2023-01-11T01:00:31.789Z,2.95
2023-01-11T01:02:58.503Z,3.34
2023-01-11T01:05:26.530Z,3.40
2023-01-11T01:07:53.185Z,1.58
2023-01-11T01:10:20.505Z,3.09
2023-01-11T01:13:05.605Z,3.27
2023-01-11T01:15:32.564Z,3.36
2023-01-11T01:17:59.190Z,3.37
2023-01-11T01:20:27.711Z,3.40
2023-01-11T01:22:54.331Z,3.38
2023-01-11T01:25:20.868Z,3.17
2023-01-11T01:27:47.454Z,3.35
2023-01-11T01:30:14.628Z,3.38
2023-01-11T01:32:41.276Z,3.40
2023-01-11T01:35:08.708Z,2.85
2023-01-11T01:37:36.681Z,1.41
2023-01-11T01:40:03.681Z,1.19
2023-01-11T01:42:30.312Z,2.66
2023-01-11T01:44:59.843Z,2.49
2023-01-11T01:47:33.885Z,2.93
2023-01-11T01:50:04.797Z,3.17
2023-01-11T01:52:33.538Z,2.87
2023-01-11T01:55:05.524Z,3.21
2023-01-11T01:57:35.540Z,3.14
2023-01-11T02:00:07.128Z,3.27
2023-01-11T02:02:34.912Z,1.27
2023-01-11T02:05:01.879Z,2.73
2023-01-11T02:07:32.713Z,3.02
2023-01-11T02:10:03.460Z,3.14
2023-01-11T02:12:32.711Z,3.22
2023-01-11T02:15:00.503Z,3.00
2023-01-11T02:17:27.068Z,3.24
2023-01-11T02:19:57.681Z,3.26
2023-01-11T02:23:12.019Z,3.15
2023-01-11T02:26:02.247Z,2.15
2023-01-11T02:28:34.157Z,1.52
2023-01-11T02:31:10.368Z,2.62
2023-01-11T02:33:43.297Z,2.93
2023-01-11T02:36:17.618Z,3.11
2023-01-11T02:38:50.629Z,3.18
2023-01-11T02:41:24.119Z,3.22
2023-01-11T02:44:18.680Z,3.14
2023-01-11T02:46:49.322Z,3.23
2023-01-11T02:49:24.034Z,3.24
2023-01-11T02:51:54.602Z,3.24
2023-01-11T02:54:24.022Z,3.26
2023-01-11T02:56:55.844Z,2.89
2023-01-11T02:59:29.263Z,3.17
2023-01-11T03:01:55.970Z,3.22
2023-01-11T03:04:24.863Z,3.25
2023-01-11T03:07:00.190Z,3.25
2023-01-11T03:09:35.223Z,3.24
2023-01-11T03:12:41.934Z,3.01
2023-01-11T03:15:25.508Z,2.95
2023-01-11T03:18:04.577Z,3.23
2023-01-11T03:20:35.636Z,2.16
2023-01-11T03:23:14.762Z,3.05
2023-01-11T03:25:55.548Z,3.06
2023-01-11T03:28:30.765Z,3.17
2023-01-11T03:31:02.379Z,3.22
2023-01-11T03:33:37.412Z,3.24
2023-01-11T03:36:11.176Z,3.27
2023-01-11T03:38:42.776Z,3.25
2023-01-11T03:41:13.641Z,3.24
2023-01-11T03:43:44.053Z,3.28
2023-01-11T03:46:15.438Z,3.25
2023-01-11T03:48:47.352Z,3.25
2023-01-11T03:51:19.045Z,3.26
2023-01-11T03:53:49.442Z,2.93
2023-01-11T03:56:20.074Z,2.10
2023-01-11T03:58:46.687Z,3.04
2023-01-11T04:01:14.914Z,3.16
2023-01-11T04:03:41.426Z,2.41
2023-01-11T04:06:11.043Z,3.04
2023-01-11T04:08:37.548Z,2.83
2023-01-11T04:11:04.879Z,3.10
2023-01-11T04:13:32.310Z,3.17
2023-01-11T04:15:58.875Z,3.23
2023-01-11T04:18:26.731Z,2.84
2023-01-11T04:20:53.255Z,3.14
2023-01-11T04:23:19.816Z,3.22
2023-01-11T04:25:46.991Z,3.19
2023-01-11T04:28:13.484Z,2.80
2023-01-11T04:30:39.987Z,3.14
2023-01-11T04:33:06.490Z,3.21
2023-01-11T04:35:34.341Z,3.21
2023-01-11T04:38:00.908Z,3.24
2023-01-11T04:40:27.458Z,3.26
2023-01-11T04:42:53.966Z,3.25
2023-01-11T04:45:20.535Z,3.03
2023-01-11T04:47:52.907Z,2.82
2023-01-11T04:50:19.574Z,2.83
2023-01-11T04:52:47.449Z,3.06
2023-01-11T04:55:14.008Z,3.17
2023-01-11T04:57:40.499Z,3.20
2023-01-11T05:00:10.813Z,3.23
2023-01-11T05:02:37.409Z,3.22
2023-01-11T05:05:04.403Z,3.25
2023-01-11T05:07:31.026Z,3.24
2023-01-11T05:09:58.913Z,2.02
2023-01-11T05:12:25.475Z,2.91
2023-01-11T05:14:52.015Z,3.14
2023-01-11T05:17:18.621Z,3.14
2023-01-11T05:19:45.181Z,3.17
2023-01-11T05:22:11.747Z,3.23
2023-01-11T05:24:38.290Z,2.57
2023-01-11T05:27:06.238Z,3.06
2023-01-11T05:29:32.836Z,3.17
2023-01-11T05:31:59.527Z,3.19
2023-01-11T05:34:26.164Z,3.23
2023-01-11T05:36:52.725Z,3.21
2023-01-11T05:39:19.269Z,3.24
2023-01-11T05:41:45.813Z,3.21
2023-01-11T05:44:32.572Z,2.99
2023-01-11T05:46:59.548Z,2.75
2023-01-11T05:49:26.133Z,3.15
2023-01-11T05:51:52.665Z,2.78
2023-01-11T05:54:19.428Z,2.36
2023-01-11T05:56:46.110Z,2.73
2023-01-11T05:59:14.072Z,3.08
2023-01-11T06:01:40.692Z,3.16
2023-01-11T06:04:08.404Z,1.82
2023-01-11T06:06:35.125Z,2.84
2023-01-11T06:09:01.712Z,3.06
2023-01-11T06:11:28.349Z,2.18
2023-01-11T06:13:54.968Z,2.57
2023-01-11T06:16:23.684Z,2.88
2023-01-11T06:18:52.471Z,2.12
2023-01-11T06:21:20.054Z,3.03
2023-01-11T06:23:50.542Z,3.11
2023-01-11T06:26:19.322Z,3.14
2023-01-11T06:28:46.505Z,3.14
2023-01-11T06:31:15.470Z,2.84
2023-01-11T06:33:45.120Z,3.09
2023-01-11T06:36:13.257Z,3.12
2023-01-11T06:38:40.638Z,3.14
2023-01-11T06:41:10.802Z,2.98
2023-01-11T06:43:41.003Z,2.49
2023-01-11T06:46:10.831Z,2.21
2023-01-11T06:48:37.470Z,2.21
2023-01-11T06:51:05.690Z,0.77
2023-01-11T06:53:32.330Z,2.39
2023-01-11T06:55:58.987Z,2.25
2023-01-11T06:58:26.437Z,2.78
2023-01-11T07:00:54.683Z,2.82
2023-01-11T07:03:23.956Z,3.03
2023-01-11T07:05:51.387Z,2.37
2023-01-11T07:08:19.800Z,1.75
2023-01-11T07:10:46.461Z,1.65
2023-01-11T07:13:16.063Z,2.63
2023-01-11T07:15:43.248Z,2.89
2023-01-11T07:18:11.407Z,1.73
2023-01-11T07:20:38.333Z,2.76
2023-01-11T07:23:04.882Z,2.98
2023-01-11T07:25:32.772Z,2.96
2023-01-11T07:28:00.767Z,3.00
2023-01-11T07:30:29.561Z,1.63
2023-01-11T07:32:58.084Z,2.41
2023-01-11T07:35:24.829Z,2.19
2023-01-11T07:37:51.470Z,2.19
2023-01-11T07:40:18.616Z,2.35
2023-01-11T07:43:09.966Z,1.64
2023-01-11T07:45:45.506Z,2.17
2023-01-11T07:48:13.427Z,2.67
2023-01-11T07:50:43.453Z,2.37
2023-01-11T07:53:11.211Z,2.83
2023-01-11T07:55:39.552Z,2.94
2023-01-11T07:58:08.524Z,2.39
2023-01-11T08:00:35.165Z,2.83
2023-01-11T08:03:02.563Z,2.43
2023-01-11T08:05:29.659Z,1.57
2023-01-11T08:07:56.192Z,2.46
2023-01-11T08:10:24.148Z,2.50
2023-01-11T08:13:09.748Z,1.76
2023-01-11T08:15:37.921Z,2.70
2023-01-11T08:18:05.847Z,2.89
2023-01-11T08:20:32.679Z,2.87
2023-01-11T08:23:03.438Z,2.63
2023-01-11T08:25:30.063Z,2.89
2023-01-11T08:27:59.539Z,2.08
2023-01-11T08:30:26.097Z,2.37
2023-01-11T08:32:54.019Z,2.54
2023-01-11T08:35:21.849Z,2.50
2023-01-11T08:37:48.384Z,2.72
2023-01-11T08:40:15.084Z,2.69
2023-01-11T08:42:41.622Z,2.83
2023-01-11T08:45:08.972Z,2.91
2023-01-11T08:47:35.555Z,2.98
2023-01-11T08:50:03.782Z,2.99
2023-01-11T08:52:30.354Z,3.04
2023-01-11T08:54:56.905Z,3.08
2023-01-11T08:57:23.457Z,3.04
2023-01-11T08:59:50.008Z,3.06
2023-01-11T09:02:17.059Z,3.06
2023-01-11T09:04:43.670Z,3.06
2023-01-11T09:07:11.631Z,3.06
2023-01-11T09:09:38.223Z,3.07
2023-01-11T09:12:05.957Z,3.15
2023-01-11T09:14:32.863Z,3.25
2023-01-11T09:16:59.499Z,3.35
2023-01-11T09:19:26.133Z,3.15
2023-01-11T09:21:53.256Z,4.87
2023-01-11T09:24:21.204Z,4.74
2023-01-11T09:26:48.037Z,5.40
2023-01-11T09:29:14.748Z,3.89
2023-01-11T09:31:41.392Z,3.45
2023-01-11T09:34:10.880Z,3.30
2023-01-11T09:36:39.847Z,3.25
2023-01-11T09:39:10.369Z,4.15
2023-01-11T09:42:00.193Z,3.48
2023-01-11T09:44:29.715Z,3.40
2023-01-11T09:47:14.015Z,3.40
2023-01-11T09:49:44.652Z,5.14
2023-01-11T09:52:23.808Z,5.35
2023-01-11T09:54:51.244Z,5.27
2023-01-11T09:57:30.972Z,5.30
2023-01-11T10:00:04.922Z,5.60
2023-01-11T10:02:40.342Z,4.68
2023-01-11T10:05:29.728Z,3.86
2023-01-11T10:18:25.903Z,3.49
2023-01-11T10:18:28.855Z,3.86
2023-01-11T10:19:59.111Z,4.54
2023-01-11T10:22:33.483Z,4.52
2023-01-11T10:25:07.420Z,4.68
2023-01-11T10:27:38.918Z,4.05
2023-01-11T10:30:35.811Z,4.51
2023-01-11T10:33:25.380Z,4.83
2023-01-11T10:36:13.642Z,4.13
2023-01-11T10:39:16.003Z,3.62
2023-01-11T10:41:54.951Z,5.13
2023-01-11T10:44:31.360Z,8.30
2023-01-11T10:47:02.269Z,8.44
2023-01-11T10:49:36.429Z,5.96
2023-01-11T10:52:13.737Z,7.50
2023-01-11T10:54:46.798Z,4.59
2023-01-11T10:57:20.349Z,4.00
2023-01-11T11:00:02.541Z,6.25
2023-01-11T11:02:45.009Z,4.50
2023-01-11T11:05:23.549Z,4.03
2023-01-11T11:07:55.556Z,5.78
2023-01-11T11:10:30.506Z,7.53
2023-01-11T11:13:07.897Z,8.92
2023-01-11T11:15:41.049Z,8.64
2023-01-11T11:18:09.873Z,8.23
2023-01-11T11:20:36.434Z,7.64
2023-01-11T11:23:03.090Z,7.31
2023-01-11T11:25:32.524Z,7.19
2023-01-11T11:28:03.093Z,5.32
2023-01-11T11:30:33.577Z,6.61
2023-01-11T11:33:03.098Z,6.78
2023-01-11T11:35:33.038Z,4.75
2023-01-11T11:38:00.220Z,4.50
2023-01-11T11:40:33.439Z,4.52
2023-01-11T11:43:20.973Z,4.25
2023-01-11T11:45:52.448Z,4.65
2023-01-11T11:48:19.139Z,4.29
2023-01-11T11:50:48.464Z,4.69
2023-01-11T11:53:28.350Z,5.19
2023-01-11T11:55:55.228Z,4.51
2023-01-11T11:58:25.132Z,4.33
2023-01-11T12:00:53.016Z,5.12
2023-01-11T12:03:23.597Z,4.51
2023-01-11T12:05:55.143Z,4.33
2023-01-11T12:08:24.928Z,4.79
2023-01-11T12:10:57.377Z,6.44
2023-01-11T12:13:28.134Z,7.07
2023-01-11T12:15:58.856Z,5.04
2023-01-11T12:18:27.347Z,6.78
2023-01-11T12:20:55.656Z,5.57
2023-01-11T12:23:26.758Z,5.04
2023-01-11T12:26:20.078Z,5.93
2023-01-11T12:29:01.612Z,6.25
2023-01-11T12:31:39.028Z,4.86
2023-01-11T12:34:16.377Z,6.46
2023-01-11T12:36:52.591Z,7.29
2023-01-11T12:39:24.779Z,7.59
2023-01-11T12:42:01.758Z,7.59
2023-01-11T12:44:42.419Z,5.61
2023-01-11T12:47:30.938Z,5.28
2023-01-11T12:50:08.504Z,4.97
2023-01-11T12:52:45.479Z,5.85
2023-01-11T12:55:34.072Z,5.95
2023-01-11T12:58:08.716Z,5.23
2023-01-11T13:00:55.415Z,5.19
2023-01-11T13:03:56.334Z,5.14
2023-01-11T13:06:30.269Z,6.28
2023-01-11T13:09:04.623Z,7.18
2023-01-11T13:11:45.857Z,7.15
2023-01-11T13:14:35.922Z,5.48
2023-01-11T13:17:15.459Z,5.26
2023-01-11T13:19:50.414Z,5.08
2023-01-11T13:22:20.924Z,5.04
2023-01-11T13:24:51.009Z,5.76
2023-01-11T13:27:24.597Z,5.54
2023-01-11T13:29:55.010Z,5.40
2023-01-11T13:32:24.209Z,5.31
2023-01-11T13:34:55.683Z,5.14
2023-01-11T13:37:29.515Z,6.60
2023-01-11T13:40:08.208Z,6.11
2023-01-11T13:42:38.454Z,5.46
2023-01-11T13:45:16.356Z,6.10
2023-01-11T13:47:46.243Z,5.65
2023-01-11T13:50:20.496Z,5.30
2023-01-11T13:52:57.814Z,5.71
2023-01-11T13:55:31.528Z,7.04
2023-01-11T13:58:03.303Z,5.89
2023-01-11T14:00:33.636Z,5.56
2023-01-11T14:03:09.857Z,5.57
2023-01-11T14:05:45.837Z,5.88
2023-01-11T14:08:23.781Z,5.40
2023-01-11T14:11:03.507Z,5.38
2023-01-11T14:14:09.442Z,5.84
2023-01-11T14:16:48.535Z,5.54
2023-01-11T14:19:22.367Z,5.62
2023-01-11T14:22:01.851Z,6.00
2023-01-11T14:24:31.955Z,5.50
2023-01-11T14:27:18.534Z,6.00
2023-01-11T14:30:01.017Z,6.07
2023-01-11T14:32:49.948Z,5.98
2023-01-11T14:36:01.569Z,5.69
2023-01-11T14:38:51.047Z,5.69
2023-01-11T14:41:40.141Z,5.74
2023-01-11T14:44:22.939Z,5.70
2023-01-11T14:47:24.231Z,5.68
2023-01-11T14:50:04.922Z,5.86
2023-01-11T14:52:40.080Z,5.65
2023-01-11T14:55:16.209Z,5.67
2023-01-11T14:57:44.388Z,5.68
2023-01-11T15:00:58.882Z,5.93
2023-01-11T15:03:36.188Z,6.22
2023-01-11T15:06:13.541Z,5.84
2023-01-11T15:08:49.109Z,5.78
2023-01-11T15:11:31.002Z,5.71
2023-01-11T15:14:03.018Z,5.76
2023-01-11T15:16:50.513Z,5.69
2023-01-11T15:19:28.139Z,5.66
2023-01-11T15:21:57.027Z,5.82
2023-01-11T15:24:27.071Z,5.81
2023-01-11T15:26:54.474Z,5.86
2023-01-11T15:29:23.877Z,5.75
2023-01-11T15:32:07.051Z,5.73
2023-01-11T15:34:44.038Z,5.79
2023-01-11T15:37:31.101Z,5.78
2023-01-11T15:40:00.663Z,5.80
2023-01-11T15:43:05.807Z,5.80
2023-01-11T15:46:07.715Z,5.79
2023-01-11T15:48:43.375Z,5.83
2023-01-11T15:51:34.862Z,5.80
2023-01-11T15:54:29.153Z,5.77
2023-01-11T15:57:11.690Z,5.76
2023-01-11T16:00:02.926Z,5.84
2023-01-11T16:03:19.740Z,5.92
2023-01-11T16:05:54.135Z,5.93
2023-01-11T16:08:27.632Z,5.80
2023-01-11T16:11:08.535Z,5.84
2023-01-11T16:13:51.200Z,5.93
2023-01-11T16:16:21.107Z,5.83
2023-01-11T16:18:54.303Z,5.83
2023-01-11T16:21:30.580Z,5.81
2023-01-11T16:23:58.605Z,5.81
2023-01-11T16:26:25.760Z,5.83
2023-01-11T16:28:56.233Z,5.96
2023-01-11T16:31:23.245Z,5.83
2023-01-11T16:33:50.176Z,5.76
2023-01-11T16:36:18.966Z,5.89
2023-01-11T16:39:02.327Z,5.84
2023-01-11T16:41:32.747Z,5.88
2023-01-11T16:44:02.247Z,5.90
2023-01-11T16:47:14.660Z,5.93
2023-01-11T16:49:43.332Z,5.92
2023-01-11T16:52:35.716Z,5.99
2023-01-11T16:55:13.886Z,5.99
2023-01-11T16:57:44.088Z,5.94
2023-01-11T17:00:22.278Z,5.94
2023-01-11T17:03:00.112Z,5.96
2023-01-11T17:05:27.016Z,5.97
2023-01-11T17:07:53.551Z,5.97
2023-01-11T17:10:23.981Z,6.01
2023-01-11T17:13:34.421Z,5.96
2023-01-11T17:16:07.740Z,5.85
2023-01-11T17:18:37.183Z,5.95
2023-01-11T17:21:04.085Z,6.03
2023-01-11T17:23:31.155Z,5.93
2023-01-11T17:25:59.197Z,6.04
2023-01-11T17:28:26.172Z,5.95
2023-01-11T17:30:53.733Z,5.72
2023-01-11T17:33:26.489Z,5.92
2023-01-11T17:35:54.523Z,5.94
2023-01-11T17:38:22.364Z,5.90
2023-01-11T17:40:49.085Z,6.11
2023-01-11T17:43:39.594Z,5.92
2023-01-11T17:46:07.330Z,5.92
2023-01-11T17:48:34.499Z,6.01
2023-01-11T17:51:03.003Z,5.97
2023-01-11T17:53:32.292Z,6.06
2023-01-11T17:56:01.049Z,6.13
2023-01-11T17:58:30.496Z,6.05
2023-01-11T18:01:18.257Z,6.02
2023-01-11T18:03:46.927Z,6.03
2023-01-11T18:06:18.673Z,6.03
2023-01-11T18:08:47.424Z,5.90
2023-01-11T18:11:25.512Z,6.04
2023-01-11T18:13:55.273Z,6.11
2023-01-11T18:16:22.302Z,5.97
2023-01-11T18:18:50.298Z,6.04
2023-01-11T18:21:42.216Z,6.05
2023-01-11T18:24:25.261Z,6.02
2023-01-11T18:27:05.964Z,5.92
2023-01-11T18:29:48.354Z,6.08
2023-01-11T18:32:15.514Z,6.05
2023-01-11T18:34:44.286Z,6.05
2023-01-11T18:37:11.015Z,6.04
2023-01-11T18:39:37.569Z,5.92
2023-01-11T18:42:08.111Z,6.01
2023-01-11T18:44:35.520Z,6.03
2023-01-11T18:47:13.332Z,6.05
2023-01-11T18:49:39.834Z,6.03
2023-01-11T18:52:06.488Z,6.26
2023-01-11T18:54:32.993Z,6.19
2023-01-11T18:56:59.569Z,6.19
2023-01-11T18:59:26.134Z,6.25
2023-01-11T19:02:01.610Z,6.27
2023-01-11T19:04:36.026Z,6.13
2023-01-11T19:07:02.551Z,6.27
2023-01-11T19:09:29.080Z,6.17
2023-01-11T19:11:55.832Z,6.21
2023-01-11T19:14:22.361Z,6.23
2023-01-11T19:16:48.888Z,6.27
2023-01-11T19:19:15.584Z,6.30
2023-01-11T19:21:43.451Z,6.20
2023-01-11T19:24:10.105Z,6.19
2023-01-11T19:26:36.748Z,6.38
2023-01-11T19:29:03.731Z,6.22
2023-01-11T19:31:30.680Z,6.27
2023-01-11T19:33:57.284Z,6.21
2023-01-11T19:36:23.854Z,6.23
2023-01-11T19:38:51.727Z,6.15
2023-01-11T19:41:18.275Z,6.12
2023-01-11T19:43:45.209Z,6.16
2023-01-11T19:46:12.147Z,6.12
2023-01-11T19:48:40.092Z,6.13
2023-01-11T19:51:10.138Z,6.22
2023-01-11T19:53:37.383Z,6.20
2023-01-11T19:56:07.331Z,6.11
2023-01-11T19:58:36.664Z,6.20
2023-01-11T20:01:09.586Z,6.28
2023-01-11T20:03:36.162Z,6.18
2023-01-11T20:06:04.626Z,6.24
2023-01-11T20:08:31.211Z,6.20
2023-01-11T20:11:03.406Z,6.29
2023-01-11T20:13:31.367Z,6.18
2023-01-11T20:15:57.969Z,6.22
2023-01-11T20:18:24.590Z,6.16
2023-01-11T20:20:54.571Z,6.14
2023-01-11T20:23:21.131Z,6.18
2023-01-11T20:25:47.722Z,6.11
2023-01-11T20:28:14.426Z,6.15
2023-01-11T20:30:42.396Z,6.11
2023-01-11T20:33:10.062Z,6.04
2023-01-11T20:35:37.675Z,6.15
2023-01-11T20:38:04.177Z,6.12
2023-01-11T20:40:30.684Z,6.31
2023-01-11T20:42:57.388Z,6.16
2023-01-11T20:45:23.891Z,6.07
2023-01-11T20:47:51.733Z,6.04
2023-01-11T20:50:18.275Z,6.12
2023-01-11T20:52:44.783Z,6.18
2023-01-11T20:55:11.290Z,6.03
2023-01-11T20:57:37.874Z,6.09
2023-01-11T21:00:07.584Z,6.17
2023-01-11T21:02:34.018Z,6.20
2023-01-11T21:05:04.457Z,6.21
2023-01-11T21:07:31.102Z,6.23
2023-01-11T21:09:57.691Z,6.18
2023-01-11T21:12:24.532Z,6.20
2023-01-11T21:14:51.111Z,6.21
2023-01-11T21:17:19.151Z,6.19
2023-01-11T21:19:45.775Z,6.20
2023-01-11T21:22:13.647Z,6.22
2023-01-11T21:24:41.026Z,6.19
2023-01-11T21:27:07.643Z,6.21
2023-01-11T21:29:34.388Z,6.20
2023-01-11T21:32:01.075Z,6.22
2023-01-11T21:34:27.690Z,6.19
2023-01-11T21:36:54.233Z,6.19
2023-01-11T21:39:22.192Z,6.22
2023-01-11T21:42:03.471Z,6.20
2023-01-11T21:44:33.151Z,6.19
2023-01-11T21:46:59.565Z,6.19
2023-01-11T21:49:26.384Z,6.22
2023-01-11T21:51:53.392Z,5.70
2023-01-11T21:54:20.355Z,5.96
2023-01-11T21:56:49.157Z,6.12
2023-01-11T21:59:16.436Z,6.17
2023-01-11T22:01:45.670Z,5.77
2023-01-11T22:04:14.663Z,5.73
2023-01-11T22:06:42.978Z,6.08
2023-01-11T22:09:11.523Z,6.12
2023-01-11T22:11:38.617Z,6.18
2023-01-11T22:14:08.448Z,6.14
2023-01-11T22:16:36.323Z,6.22
2023-01-11T22:19:03.757Z,6.18
2023-01-11T22:21:30.364Z,6.13
2023-01-11T22:23:58.413Z,6.17
2023-01-11T22:26:26.114Z,6.18
2023-01-11T22:29:14.557Z,6.19
2023-01-11T22:31:44.344Z,6.06
2023-01-11T22:34:11.753Z,6.16
2023-01-11T22:36:38.533Z,6.19
2023-01-11T22:39:05.530Z,6.00
2023-01-11T22:41:32.609Z,6.12
2023-01-11T22:43:59.427Z,6.21
2023-01-11T22:46:27.222Z,6.18
2023-01-11T22:48:55.137Z,5.90
2023-01-11T22:51:24.588Z,5.84
2023-01-11T22:53:52.695Z,5.93
2023-01-11T22:56:22.011Z,5.73
2023-01-11T22:58:50.562Z,5.67
2023-01-11T23:01:20.268Z,5.84
2023-01-11T23:03:46.692Z,5.64
2023-01-11T23:06:17.215Z,5.70
2023-01-11T23:08:43.909Z,5.72
2023-01-11T23:11:14.583Z,5.53
2023-01-11T23:13:54.721Z,5.50
2023-01-11T23:16:21.644Z,5.97
2023-01-11T23:18:48.469Z,5.73
2023-01-11T23:21:16.964Z,5.98
2023-01-11T23:23:43.843Z,6.06
2023-01-11T23:26:12.154Z,6.07
2023-01-11T23:28:39.121Z,6.10
2023-01-11T23:31:14.209Z,6.00
2023-01-11T23:33:40.811Z,5.71
2023-01-11T23:36:08.009Z,5.75
2023-01-11T23:38:35.947Z,5.78
2023-01-11T23:41:25.871Z,5.26
2023-01-11T23:43:52.511Z,5.96
2023-01-11T23:46:37.634Z,5.25
2023-01-11T23:49:05.324Z,5.19
2023-01-11T23:51:32.049Z,5.83
2023-01-11T23:54:00.245Z,5.72
2023-01-11T23:56:26.818Z,5.97
2023-01-11T23:58:53.540Z,5.24
